createdAt,value
2022-10-22T00:01:16.460Z,3.75
2022-10-22T00:03:42.937Z,2.03
2022-10-22T00:06:09.401Z,2.65
2022-10-22T00:08:35.914Z,2.30
2022-10-22T00:11:14.401Z,2.40
2022-10-22T00:13:41.019Z,2.47
2022-10-22T00:16:07.974Z,2.83
2022-10-22T00:18:35.137Z,2.25
2022-10-22T00:21:02.192Z,2.13
2022-10-22T00:23:28.861Z,2.67
2022-10-22T00:25:55.410Z,2.42
2022-10-22T00:28:22.151Z,2.10
2022-10-22T00:30:48.612Z,2.13
2022-10-22T00:33:15.028Z,3.25
2022-10-22T00:35:41.492Z,2.20
2022-10-22T00:38:07.988Z,2.58
2022-10-22T00:40:34.995Z,2.20
2022-10-22T00:43:01.521Z,2.13
2022-10-22T00:45:28.497Z,2.20
2022-10-22T00:48:09.042Z,2.15
2022-10-22T00:50:43.645Z,2.03
2022-10-22T00:53:17.233Z,3.08
2022-10-22T00:55:46.134Z,2.45
2022-10-22T00:58:13.959Z,2.55
2022-10-22T01:00:40.713Z,2.33
2022-10-22T01:03:07.461Z,2.03
2022-10-22T01:05:45.189Z,2.55
2022-10-22T01:08:23.732Z,2.25
2022-10-22T01:11:19.387Z,1.95
2022-10-22T01:13:51.892Z,2.67
2022-10-22T01:16:41.338Z,2.25
2022-10-22T01:19:25.505Z,2.20
2022-10-22T01:21:59.583Z,2.25
2022-10-22T01:24:38.244Z,2.75
2022-10-22T01:27:11.847Z,2.00
2022-10-22T01:29:59.963Z,2.00
2022-10-22T01:32:29.339Z,2.40
2022-10-22T01:35:01.764Z,2.25
2022-10-22T01:37:37.022Z,2.22
2022-10-22T01:40:06.850Z,3.47
2022-10-22T01:42:33.306Z,2.10
2022-10-22T01:44:59.758Z,2.50
2022-10-22T01:47:54.150Z,1.90
2022-10-22T01:50:44.467Z,2.08
2022-10-22T01:53:21.452Z,2.40
2022-10-22T01:55:47.855Z,1.80
2022-10-22T01:58:33.982Z,1.90
2022-10-22T02:01:08.701Z,2.22
2022-10-22T02:03:49.969Z,2.03
2022-10-22T02:06:20.626Z,2.17
2022-10-22T02:08:49.689Z,2.25
2022-10-22T02:11:16.834Z,2.28
2022-10-22T02:13:48.158Z,2.00
2022-10-22T02:16:36.265Z,1.48
2022-10-22T02:19:11.240Z,2.25
2022-10-22T02:21:37.909Z,1.63
2022-10-22T02:24:04.785Z,1.70
2022-10-22T02:26:50.203Z,1.58
2022-10-22T02:29:26.397Z,1.58
2022-10-22T02:31:56.660Z,1.88
2022-10-22T02:34:27.762Z,1.77
2022-10-22T02:36:54.735Z,2.10
2022-10-22T02:39:22.974Z,1.60
2022-10-22T02:41:49.478Z,1.75
2022-10-22T02:44:16.016Z,1.60
2022-10-22T02:46:43.305Z,1.85
2022-10-22T02:49:09.740Z,1.88
2022-10-22T02:51:36.184Z,1.70
2022-10-22T02:54:02.626Z,1.60
2022-10-22T02:56:29.106Z,1.63
2022-10-22T02:58:55.573Z,1.52
2022-10-22T03:01:22.122Z,1.70
2022-10-22T03:03:48.686Z,1.77
2022-10-22T03:06:15.275Z,1.83
2022-10-22T03:08:42.107Z,1.92
2022-10-22T03:11:08.768Z,1.98
2022-10-22T03:13:35.410Z,1.92
2022-10-22T03:16:02.228Z,1.90
2022-10-22T03:18:28.632Z,2.10
2022-10-22T03:21:06.058Z,2.20
2022-10-22T03:23:33.025Z,1.77
2022-10-22T03:28:26.404Z,2.10
2022-10-22T03:30:52.811Z,1.45
2022-10-22T03:33:19.221Z,1.70
2022-10-22T03:35:47.771Z,3.45
2022-10-22T03:38:14.826Z,2.05
2022-10-22T03:40:43.909Z,1.73
2022-10-22T03:43:10.417Z,1.90
2022-10-22T03:50:34.684Z,1.60
2022-10-22T03:53:01.165Z,2.03
2022-10-22T03:55:27.549Z,2.00
2022-10-22T03:57:54.135Z,1.48
2022-10-22T04:00:20.642Z,1.98
2022-10-22T04:02:47.118Z,1.77
2022-10-22T04:07:41.182Z,2.70
2022-10-22T04:10:08.303Z,2.15
2022-10-22T04:12:34.741Z,2.08
2022-10-22T04:15:01.164Z,1.77
2022-10-22T04:17:36.413Z,2.08
2022-10-22T04:20:04.505Z,2.25
2022-10-22T04:22:33.919Z,3.47
2022-10-22T04:25:00.499Z,2.38
2022-10-22T04:27:33.044Z,2.10
2022-10-22T04:29:59.465Z,1.85
2022-10-22T04:32:27.167Z,2.05
2022-10-22T04:34:53.668Z,2.00
2022-10-22T04:37:20.275Z,3.13
2022-10-22T04:39:46.739Z,1.67
2022-10-22T04:42:14.158Z,2.13
2022-10-22T04:44:40.582Z,1.75
2022-10-22T04:47:07.023Z,1.70
2022-10-22T04:49:33.484Z,1.83
2022-10-22T04:51:59.890Z,1.67
2022-10-22T04:54:29.035Z,1.80
2022-10-22T04:56:58.698Z,1.60
2022-10-22T04:59:25.249Z,1.80
2022-10-22T05:01:51.670Z,1.75
2022-10-22T05:04:18.166Z,1.70
2022-10-22T05:06:44.863Z,1.13
2022-10-22T05:09:14.165Z,1.30
2022-10-22T05:11:42.603Z,1.23
2022-10-22T05:14:11.068Z,1.13
2022-10-22T05:16:38.049Z,1.10
2022-10-22T05:19:05.708Z,1.45
2022-10-22T05:21:32.606Z,1.58
2022-10-22T05:23:59.096Z,1.15
2022-10-22T05:26:26.525Z,1.80
2022-10-22T05:28:53.136Z,1.25
2022-10-22T05:31:20.020Z,1.55
2022-10-22T05:33:46.998Z,1.10
2022-10-22T05:36:16.125Z,2.30
2022-10-22T05:38:42.569Z,1.00
2022-10-22T05:41:12.234Z,1.95
2022-10-22T05:43:38.998Z,1.90
2022-10-22T05:46:10.799Z,1.02
2022-10-22T05:48:37.618Z,1.80
2022-10-22T05:51:06.235Z,0.82
2022-10-22T05:53:33.687Z,1.40
2022-10-22T05:56:05.392Z,1.00
2022-10-22T05:58:31.976Z,1.30
2022-10-22T06:01:28.082Z,0.80
2022-10-22T06:03:56.598Z,0.85
2022-10-22T06:06:27.812Z,0.93
2022-10-22T06:08:55.873Z,2.28
2022-10-22T06:11:24.015Z,0.98
2022-10-22T06:13:51.431Z,1.00
2022-10-22T06:16:17.968Z,1.27
2022-10-22T06:18:44.432Z,1.45
2022-10-22T06:21:13.188Z,1.27
2022-10-22T06:23:40.285Z,1.70
2022-10-22T06:26:08.076Z,0.98
2022-10-22T06:28:34.782Z,1.33
2022-10-22T06:31:02.318Z,1.25
2022-10-22T06:33:31.189Z,1.27
2022-10-22T06:36:07.594Z,1.50
2022-10-22T06:38:34.508Z,1.60
2022-10-22T06:41:06.251Z,1.20
2022-10-22T06:43:32.822Z,1.85
2022-10-22T06:46:04.221Z,1.58
2022-10-22T06:51:01.942Z,1.35
2022-10-22T06:53:28.785Z,1.60
2022-10-22T06:55:55.238Z,1.60
2022-10-22T06:58:21.677Z,1.60
2022-10-22T07:00:48.139Z,1.30
2022-10-22T07:03:15.587Z,1.60
2022-10-22T07:05:42.053Z,1.42
2022-10-22T07:08:08.566Z,1.50
2022-10-22T07:10:34.999Z,2.20
2022-10-22T07:13:01.479Z,1.45
2022-10-22T07:15:27.901Z,1.40
2022-10-22T07:17:54.400Z,1.50
2022-10-22T07:20:20.812Z,2.03
2022-10-22T07:22:47.247Z,1.35
2022-10-22T07:25:13.680Z,2.00
2022-10-22T07:27:40.529Z,1.45
2022-10-22T07:30:08.089Z,1.40
2022-10-22T07:32:34.554Z,1.70
2022-10-22T07:35:00.957Z,2.25
2022-10-22T07:37:27.432Z,1.45
2022-10-22T07:39:53.853Z,1.90
2022-10-22T07:42:20.334Z,1.45
2022-10-22T07:44:46.777Z,2.05
2022-10-22T07:47:13.259Z,1.40
2022-10-22T07:49:39.693Z,1.58
2022-10-22T07:52:07.359Z,1.52
2022-10-22T07:54:33.811Z,2.05
2022-10-22T07:57:00.283Z,1.85
2022-10-22T07:59:26.747Z,1.77
2022-10-22T08:01:53.272Z,2.60
2022-10-22T08:04:20.170Z,1.63
2022-10-22T08:06:47.344Z,1.70
2022-10-22T08:09:14.477Z,1.80
2022-10-22T08:11:41.007Z,2.53
2022-10-22T08:14:07.503Z,2.05
2022-10-22T08:16:33.933Z,1.92
2022-10-22T08:19:00.411Z,1.55
2022-10-22T08:21:27.007Z,1.83
2022-10-22T08:23:53.516Z,1.63
2022-10-22T08:26:20.058Z,1.63
2022-10-22T08:28:46.570Z,2.00
2022-10-22T08:31:13.405Z,1.58
2022-10-22T08:33:39.883Z,2.25
2022-10-22T08:36:06.931Z,2.22
2022-10-22T08:38:33.676Z,2.00
2022-10-22T08:41:17.181Z,2.08
2022-10-22T08:44:08.209Z,2.38
2022-10-22T08:47:00.834Z,2.30
2022-10-22T08:49:37.148Z,2.17
2022-10-22T08:52:13.111Z,2.33
2022-10-22T08:54:53.179Z,2.40
2022-10-22T08:57:43.119Z,2.22
2022-10-22T09:00:15.561Z,3.63
2022-10-22T09:03:07.763Z,1.90
2022-10-22T09:08:23.680Z,1.98
2022-10-22T09:11:01.883Z,2.70
2022-10-22T09:13:29.658Z,4.50
2022-10-22T09:16:01.382Z,3.72
2022-10-22T09:18:43.037Z,2.58
2022-10-22T09:21:23.891Z,2.28
2022-10-22T09:24:00.847Z,2.35
2022-10-22T09:26:27.441Z,2.30
2022-10-22T09:28:54.745Z,2.58
2022-10-22T09:31:21.230Z,2.33
2022-10-22T09:33:50.680Z,2.40
2022-10-22T09:36:21.333Z,3.17
2022-10-22T09:38:51.801Z,2.95
2022-10-22T09:41:25.731Z,2.37
2022-10-22T09:43:52.366Z,3.67
2022-10-22T09:46:22.540Z,1.83
2022-10-22T09:49:06.402Z,2.63
2022-10-22T09:51:46.170Z,2.03
2022-10-22T09:54:20.412Z,2.58
2022-10-22T09:56:51.715Z,2.20
2022-10-22T10:01:45.867Z,2.70
2022-10-22T10:04:15.538Z,2.38
2022-10-22T10:06:44.470Z,2.20
2022-10-22T10:09:20.560Z,2.78
2022-10-22T10:12:07.991Z,2.35
2022-10-22T10:14:46.450Z,1.58
2022-10-22T10:17:27.010Z,2.05
2022-10-22T10:19:53.420Z,2.58
2022-10-22T10:22:35.474Z,3.60
2022-10-22T10:25:16.945Z,1.98
2022-10-22T10:30:21.963Z,2.30
2022-10-22T10:33:04.876Z,2.90
2022-10-22T10:35:58.490Z,2.20
2022-10-22T10:38:37.451Z,2.58
2022-10-22T10:41:17.912Z,2.35
2022-10-22T10:44:29.684Z,2.10
2022-10-22T10:49:43.086Z,2.55
2022-10-22T10:52:35.924Z,2.92
2022-10-22T10:55:34.370Z,3.35
2022-10-22T10:58:18.551Z,2.95
2022-10-22T11:00:55.543Z,2.78
2022-10-22T11:03:51.205Z,2.08
2022-10-22T11:06:23.153Z,2.05
2022-10-22T11:08:58.369Z,2.42
2022-10-22T11:11:52.973Z,2.20
2022-10-22T11:14:30.018Z,2.22
2022-10-22T11:17:04.367Z,1.70
2022-10-22T11:20:01.987Z,2.17
2022-10-22T11:22:34.088Z,2.00
2022-10-22T11:25:12.613Z,2.15
2022-10-22T11:28:07.811Z,2.40
2022-10-22T11:30:38.047Z,2.05
2022-10-22T11:33:10.001Z,1.80
2022-10-22T11:35:42.209Z,1.60
2022-10-22T11:38:14.691Z,2.60
2022-10-22T11:41:02.433Z,2.08
2022-10-22T11:43:58.632Z,1.75
2022-10-22T11:46:29.965Z,1.48
2022-10-22T11:51:44.846Z,2.25
2022-10-22T11:54:35.407Z,2.90
2022-10-22T11:57:14.286Z,3.28
2022-10-22T11:59:46.593Z,1.60
2022-10-22T12:02:45.308Z,2.22
2022-10-22T12:05:19.319Z,1.83
2022-10-22T12:07:57.258Z,2.10
2022-10-22T12:10:33.896Z,1.67
2022-10-22T12:13:21.901Z,2.40
2022-10-22T12:15:51.322Z,1.90
2022-10-22T12:18:17.809Z,2.83
2022-10-22T12:20:49.369Z,1.90
2022-10-22T12:23:15.972Z,2.97
2022-10-22T12:25:42.386Z,1.83
2022-10-22T12:28:12.480Z,2.17
2022-10-22T12:30:39.294Z,1.98
2022-10-22T12:33:07.775Z,1.38
2022-10-22T12:35:42.101Z,2.80
2022-10-22T12:38:17.218Z,2.22
2022-10-22T12:40:47.503Z,2.08
2022-10-22T12:43:24.404Z,2.47
2022-10-22T12:45:52.531Z,2.13
2022-10-22T12:48:23.552Z,2.28
2022-10-22T12:50:55.055Z,2.70
2022-10-22T12:53:27.000Z,2.45
2022-10-22T12:55:55.607Z,2.60
2022-10-22T12:58:27.561Z,3.10
2022-10-22T13:00:56.067Z,2.75
2022-10-22T13:03:43.739Z,2.80
2022-10-22T13:06:19.355Z,2.20
2022-10-22T13:09:11.900Z,2.33
2022-10-22T13:11:41.584Z,2.83
2022-10-22T13:14:40.611Z,3.38
2022-10-22T13:17:20.511Z,1.88
2022-10-22T13:19:54.339Z,2.55
2022-10-22T13:22:38.996Z,2.80
2022-10-22T13:25:14.647Z,2.15
2022-10-22T13:27:45.702Z,3.22
2022-10-22T13:30:23.421Z,2.22
2022-10-22T13:32:53.160Z,2.53
2022-10-22T13:35:24.363Z,2.20
2022-10-22T13:37:50.830Z,3.45
2022-10-22T13:40:17.956Z,1.52
2022-10-22T13:42:44.661Z,2.00
2022-10-22T13:45:12.598Z,1.67
2022-10-22T13:47:39.544Z,2.67
2022-10-22T13:50:18.561Z,2.20
2022-10-22T13:52:55.321Z,2.55
2022-10-22T13:55:28.595Z,2.70
2022-10-22T13:58:11.654Z,2.90
2022-10-22T14:00:40.861Z,2.58
2022-10-22T14:03:11.049Z,2.47
2022-10-22T14:05:37.786Z,2.03
2022-10-22T14:08:09.468Z,2.15
2022-10-22T14:10:35.899Z,2.33
2022-10-22T14:13:02.351Z,2.08
2022-10-22T14:15:29.384Z,2.10
2022-10-22T14:17:58.250Z,4.00
2022-10-22T14:20:28.985Z,2.25
2022-10-22T14:22:56.443Z,2.28
2022-10-22T14:25:25.540Z,2.10
2022-10-22T14:27:52.228Z,2.28
2022-10-22T14:30:21.465Z,1.92
2022-10-22T14:32:48.200Z,2.20
2022-10-22T14:35:22.073Z,1.70
2022-10-22T14:37:48.554Z,2.03
2022-10-22T14:40:18.818Z,2.25
2022-10-22T14:42:47.605Z,2.38
2022-10-22T14:45:32.188Z,2.70
2022-10-22T14:47:58.636Z,1.83
2022-10-22T14:50:25.206Z,1.90
2022-10-22T14:52:51.988Z,2.40
2022-10-22T14:55:19.259Z,2.97
2022-10-22T14:57:46.128Z,2.05
2022-10-22T15:00:15.992Z,2.70
2022-10-22T15:02:43.144Z,2.38
2022-10-22T15:05:10.628Z,2.67
2022-10-22T15:07:38.274Z,2.15
2022-10-22T15:10:06.308Z,1.80
2022-10-22T15:12:33.122Z,2.25
2022-10-22T15:14:59.559Z,3.67
2022-10-22T15:17:26.115Z,1.92
2022-10-22T15:19:52.551Z,1.60
2022-10-22T15:22:19.526Z,2.45
2022-10-22T15:24:46.048Z,1.90
2022-10-22T15:27:12.573Z,2.80
2022-10-22T15:29:39.747Z,2.17
2022-10-22T15:32:06.309Z,2.17
2022-10-22T15:34:34.946Z,2.85
2022-10-22T15:37:04.528Z,2.00
2022-10-22T15:39:32.053Z,2.63
2022-10-22T15:41:59.211Z,2.60
2022-10-22T15:44:30.850Z,2.05
2022-10-22T15:46:58.158Z,2.60
2022-10-22T15:49:26.931Z,2.08
2022-10-22T15:51:53.537Z,2.97
2022-10-22T15:54:22.579Z,2.72
2022-10-22T15:56:49.346Z,3.28
2022-10-22T15:59:17.249Z,3.35
2022-10-22T16:01:44.406Z,3.47
2022-10-22T16:04:11.076Z,3.97
2022-10-22T16:06:44.562Z,9.18
2022-10-22T16:09:14.496Z,10.07
2022-10-22T16:11:41.938Z,9.45
2022-10-22T16:14:11.004Z,8.00
2022-10-22T16:16:37.516Z,9.02
2022-10-22T16:19:03.947Z,5.80
2022-10-22T16:21:30.415Z,4.30
2022-10-22T16:23:56.975Z,3.78
2022-10-22T16:26:23.497Z,3.17
2022-10-22T16:28:50.172Z,3.08
2022-10-22T16:31:17.817Z,2.45
2022-10-22T16:33:46.505Z,2.70
2022-10-22T16:36:18.735Z,3.00
2022-10-22T16:38:46.530Z,3.30
2022-10-22T16:41:15.918Z,3.45
2022-10-22T16:43:43.811Z,2.75
2022-10-22T16:46:11.349Z,3.83
2022-10-22T16:48:38.001Z,2.72
2022-10-22T16:51:07.346Z,3.03
2022-10-22T16:56:01.544Z,2.55
2022-10-22T16:58:27.999Z,2.65
2022-10-22T17:00:54.566Z,2.80
2022-10-22T17:03:23.478Z,3.45
2022-10-22T17:05:52.490Z,2.60
2022-10-22T17:08:18.948Z,2.70
2022-10-22T17:10:45.416Z,3.08
2022-10-22T17:13:11.845Z,2.20
2022-10-22T17:15:38.277Z,2.50
2022-10-22T17:18:24.723Z,2.13
2022-10-22T17:20:51.141Z,3.67
2022-10-22T17:23:17.596Z,2.35
2022-10-22T17:25:44.539Z,2.40
2022-10-22T17:28:11.868Z,2.95
2022-10-22T17:30:38.586Z,2.47
2022-10-22T17:33:06.218Z,2.00
2022-10-22T17:35:33.781Z,2.03
2022-10-22T17:38:00.209Z,2.33
2022-10-22T17:40:26.720Z,3.03
2022-10-22T17:42:53.478Z,2.00
2022-10-22T17:45:20.038Z,2.22
2022-10-22T17:47:46.456Z,2.15
2022-10-22T17:50:12.968Z,2.28
2022-10-22T17:52:39.645Z,2.67
2022-10-22T17:55:06.659Z,1.95
2022-10-22T17:57:33.061Z,2.05
2022-10-22T17:59:59.527Z,1.88
2022-10-22T18:02:26.025Z,1.88
2022-10-22T18:04:52.685Z,2.10
2022-10-22T18:07:19.116Z,2.35
2022-10-22T18:09:45.605Z,2.28
2022-10-22T18:12:12.307Z,2.75
2022-10-22T18:14:38.724Z,2.10
2022-10-22T18:17:05.214Z,1.98
2022-10-22T18:19:31.796Z,2.33
2022-10-22T18:21:58.697Z,2.28
2022-10-22T18:24:25.144Z,2.22
2022-10-22T18:26:51.610Z,2.70
2022-10-22T18:29:18.972Z,2.60
2022-10-22T18:31:45.439Z,2.33
2022-10-22T18:34:12.171Z,2.30
2022-10-22T18:36:40.476Z,2.50
2022-10-22T18:39:07.383Z,2.05
2022-10-22T18:41:34.160Z,2.38
2022-10-22T18:44:03.893Z,2.65
2022-10-22T18:46:31.795Z,2.40
2022-10-22T18:48:59.014Z,2.05
2022-10-22T18:51:27.464Z,2.33
2022-10-22T18:54:05.319Z,2.50
2022-10-22T18:56:39.348Z,2.42
2022-10-22T18:59:05.788Z,2.83
2022-10-22T19:01:32.269Z,4.30
2022-10-22T19:03:59.094Z,2.50
2022-10-22T19:06:33.310Z,2.72
2022-10-22T19:09:03.973Z,2.83
2022-10-22T19:11:30.488Z,2.80
2022-10-22T19:13:57.742Z,3.10
2022-10-22T19:16:24.174Z,3.50
2022-10-22T19:18:52.306Z,2.88
2022-10-22T19:21:19.081Z,3.22
2022-10-22T19:26:18.668Z,3.05
2022-10-22T19:28:45.470Z,3.80
2022-10-22T19:31:16.445Z,3.50
2022-10-22T19:33:42.886Z,3.55
2022-10-22T19:36:12.682Z,3.83
2022-10-22T19:38:40.838Z,3.72
2022-10-22T19:41:08.619Z,3.13
2022-10-22T19:43:35.075Z,3.38
2022-10-22T19:46:04.372Z,3.53
2022-10-22T19:48:31.387Z,3.92
2022-10-22T19:51:02.608Z,3.13
2022-10-22T19:53:30.169Z,3.00
2022-10-22T19:55:58.762Z,2.97
2022-10-22T19:58:25.716Z,3.00
2022-10-22T20:00:53.036Z,3.67
2022-10-22T20:03:19.919Z,3.53
2022-10-22T20:05:47.433Z,3.30
2022-10-22T20:08:14.157Z,2.70
2022-10-22T20:10:40.613Z,3.03
2022-10-22T20:13:07.052Z,3.30
2022-10-22T20:15:34.218Z,3.38
2022-10-22T20:18:00.888Z,3.80
2022-10-22T20:20:27.318Z,3.55
2022-10-22T20:22:54.077Z,3.20
2022-10-22T20:25:20.503Z,2.70
2022-10-22T20:27:47.123Z,3.53
2022-10-22T20:30:14.303Z,3.60
2022-10-22T20:32:41.148Z,3.45
2022-10-22T20:35:08.096Z,3.10
2022-10-22T20:37:34.760Z,3.38
2022-10-22T20:40:01.199Z,4.40
2022-10-22T20:42:27.673Z,3.83
2022-10-22T20:44:54.079Z,3.30
2022-10-22T20:47:20.541Z,3.20
2022-10-22T20:49:46.935Z,3.33
2022-10-22T20:52:13.368Z,3.35
2022-10-22T20:54:39.944Z,3.53
2022-10-22T20:57:06.425Z,3.50
2022-10-22T20:59:32.930Z,3.05
2022-10-22T21:01:59.475Z,2.80
2022-10-22T21:04:26.161Z,3.78
2022-10-22T21:06:52.992Z,3.88
2022-10-22T21:09:20.130Z,3.05
2022-10-22T21:11:47.434Z,2.75
2022-10-22T21:14:15.507Z,3.35
2022-10-22T21:16:44.039Z,2.85
2022-10-22T21:19:10.762Z,3.38
2022-10-22T21:21:37.617Z,4.10
2022-10-22T21:24:04.101Z,3.58
2022-10-22T21:26:30.547Z,3.20
2022-10-22T21:28:56.948Z,3.95
2022-10-22T21:31:23.505Z,3.88
2022-10-22T21:33:50.538Z,3.45
2022-10-22T21:36:21.630Z,4.10
2022-10-22T21:38:50.555Z,3.55
2022-10-22T21:41:18.413Z,3.97
2022-10-22T21:43:46.072Z,3.90
2022-10-22T21:46:16.498Z,2.65
2022-10-22T21:48:43.246Z,3.10
2022-10-22T21:51:15.916Z,3.90
2022-10-22T21:53:43.339Z,3.30
2022-10-22T21:56:15.049Z,3.58
2022-10-22T21:58:41.699Z,3.50
2022-10-22T22:01:08.395Z,3.20
2022-10-22T22:03:34.829Z,3.17
2022-10-22T22:06:03.870Z,2.88
2022-10-22T22:08:30.955Z,3.63
2022-10-22T22:11:09.452Z,4.60
2022-10-22T22:13:36.395Z,3.58
2022-10-22T22:16:15.127Z,3.45
2022-10-22T22:18:41.803Z,3.17
2022-10-22T22:21:13.812Z,2.95
2022-10-22T22:23:43.528Z,3.22
2022-10-22T22:26:11.149Z,4.43
2022-10-22T22:28:37.894Z,3.88
2022-10-22T22:31:34.514Z,3.40
2022-10-22T22:34:03.930Z,3.83
2022-10-22T22:36:39.795Z,3.00
2022-10-22T22:39:07.946Z,3.35
2022-10-22T22:41:34.892Z,3.60
2022-10-22T22:44:01.872Z,3.58
2022-10-22T22:46:28.596Z,4.00
2022-10-22T22:48:55.336Z,3.70
2022-10-22T22:51:21.816Z,3.60
2022-10-22T22:53:48.229Z,3.92
2022-10-22T22:56:20.727Z,3.55
2022-10-22T22:58:47.374Z,4.25
2022-10-22T23:01:15.868Z,5.00
2022-10-22T23:03:43.414Z,3.80
2022-10-22T23:06:10.526Z,3.25
2022-10-22T23:08:37.380Z,3.75
2022-10-22T23:11:13.970Z,4.03
2022-10-22T23:13:42.027Z,3.67
2022-10-22T23:16:17.451Z,3.60
2022-10-22T23:18:45.872Z,2.97
2022-10-22T23:21:14.062Z,3.60
2022-10-22T23:23:49.053Z,3.35
2022-10-22T23:26:28.012Z,3.90
2022-10-22T23:28:54.811Z,3.28
2022-10-22T23:31:21.530Z,3.80
2022-10-22T23:33:48.406Z,3.35
2022-10-22T23:36:14.905Z,3.88
2022-10-22T23:38:43.092Z,3.60
2022-10-22T23:41:09.925Z,3.80
2022-10-22T23:43:37.620Z,3.72
2022-10-22T23:46:08.567Z,3.25
2022-10-22T23:48:35.787Z,3.58
2022-10-22T23:51:05.821Z,3.78
2022-10-22T23:53:32.348Z,3.65
2022-10-22T23:56:03.920Z,4.90
2022-10-22T23:58:30.346Z,4.13
